RYR6RR EGSS-LEAM
Flight info
| Callsign | RYR6RR |
|---|---|
| Flight time | 2h 32m |
| Altitude | 35000 |
| Route | NUGBO M183 SILVA Q41 COWLY UT71 VAPID UN859 SOPIL DCT BALAN DCT LMG DCT PIMQO DCT AGN DCT ANETO N860 DOSEK |
| Aircraft | B738/M-SDE2E3FGHIRWXY/LB1 |
Departure
| Time | 2026-04-26 12:19 |
|---|---|
| Airport | London Stansted Airport (EGSS) |
Arrival
| Time | 2026-04-26 14:51 |
|---|---|
| Airport | Almería Airport (LEAM) |
| Time | Latitude | Longitude | Altitude | Speed | Heading |
|---|---|---|---|---|---|
| 2026-04-26 11:48 | 51.89317 | 0.26078 | 358 ft | 0 kts | 223° |
| 2026-04-26 12:07 | 51.89322 | 0.26086 | 358 ft | 4 kts | 224° |
| 2026-04-26 12:07 | 51.89340 | 0.26119 | 358 ft | 4 kts | 240° |
| 2026-04-26 12:07 | 51.89348 | 0.26157 | 357 ft | 4 kts | 277° |
| 2026-04-26 12:07 | 51.89343 | 0.26179 | 356 ft | 0 kts | 313° |
| 2026-04-26 12:10 | 51.89344 | 0.26177 | 348 ft | 1 kts | 313° |
| 2026-04-26 12:10 | 51.89361 | 0.26147 | 349 ft | 6 kts | 313° |
| 2026-04-26 12:11 | 51.89406 | 0.26070 | 353 ft | 12 kts | 313° |
| 2026-04-26 12:11 | 51.89476 | 0.25948 | 355 ft | 17 kts | 313° |
| 2026-04-26 12:11 | 51.89571 | 0.25818 | 345 ft | 18 kts | 330° |
| 2026-04-26 12:11 | 51.89583 | 0.25656 | 348 ft | 18 kts | 224° |
| 2026-04-26 12:12 | 51.89485 | 0.25509 | 349 ft | 20 kts | 223° |
| 2026-04-26 12:12 | 51.89381 | 0.25352 | 355 ft | 21 kts | 223° |
| 2026-04-26 12:12 | 51.89269 | 0.25180 | 345 ft | 23 kts | 233° |
| 2026-04-26 12:12 | 51.89212 | 0.25035 | 348 ft | 23 kts | 235° |
| 2026-04-26 12:13 | 51.89053 | 0.24793 | 345 ft | 24 kts | 222° |
| 2026-04-26 12:13 | 51.88924 | 0.24597 | 345 ft | 26 kts | 223° |
| 2026-04-26 12:13 | 51.88785 | 0.24389 | 352 ft | 28 kts | 220° |
| 2026-04-26 12:13 | 51.88641 | 0.24173 | 345 ft | 29 kts | 223° |
| 2026-04-26 12:14 | 51.88489 | 0.23943 | 345 ft | 26 kts | 223° |
| 2026-04-26 12:14 | 51.88350 | 0.23735 | 341 ft | 28 kts | 223° |
| 2026-04-26 12:14 | 51.88213 | 0.23530 | 339 ft | 26 kts | 222° |
| 2026-04-26 12:14 | 51.88085 | 0.23339 | 337 ft | 24 kts | 223° |
| 2026-04-26 12:15 | 51.87965 | 0.23160 | 338 ft | 23 kts | 223° |
| 2026-04-26 12:15 | 51.87850 | 0.22988 | 337 ft | 22 kts | 223° |
| 2026-04-26 12:15 | 51.87740 | 0.22818 | 339 ft | 22 kts | 223° |
| 2026-04-26 12:15 | 51.87630 | 0.22656 | 341 ft | 21 kts | 222° |
| 2026-04-26 12:16 | 51.87525 | 0.22498 | 341 ft | 20 kts | 223° |
| 2026-04-26 12:16 | 51.87435 | 0.22362 | 341 ft | 15 kts | 223° |
| 2026-04-26 12:16 | 51.87400 | 0.22221 | 340 ft | 12 kts | 279° |
| 2026-04-26 12:16 | 51.87426 | 0.22157 | 337 ft | 4 kts | 311° |
| 2026-04-26 12:17 | 51.87443 | 0.22126 | 339 ft | 4 kts | 311° |
| 2026-04-26 12:17 | 51.87470 | 0.22079 | 337 ft | 8 kts | 313° |
| 2026-04-26 12:17 | 51.87509 | 0.22015 | 336 ft | 6 kts | 329° |
| 2026-04-26 12:17 | 51.87547 | 0.22046 | 337 ft | 7 kts | 43° |
| 2026-04-26 12:18 | 51.87552 | 0.22054 | 335 ft | 2 kts | 43° |
| 2026-04-26 12:18 | 51.87689 | 0.22261 | 338 ft | 63 kts | 42° |
| 2026-04-26 12:18 | 51.88186 | 0.23005 | 337 ft | 130 kts | 43° |
| 2026-04-26 12:18 | 51.88982 | 0.24187 | 467 ft | 172 kts | 45° |
| 2026-04-26 12:19 | 51.89855 | 0.25495 | 1381 ft | 171 kts | 46° |
| 2026-04-26 12:19 | 51.90740 | 0.26855 | 2146 ft | 184 kts | 47° |
| 2026-04-26 12:19 | 51.91748 | 0.28403 | 2508 ft | 214 kts | 44° |
| 2026-04-26 12:19 | 51.93064 | 0.29777 | 2857 ft | 236 kts | 18° |
| 2026-04-26 12:20 | 51.94768 | 0.29926 | 3218 ft | 259 kts | 345° |
| 2026-04-26 12:20 | 51.96314 | 0.28441 | 4049 ft | 263 kts | 310° |
| 2026-04-26 12:20 | 51.97127 | 0.25803 | 4703 ft | 266 kts | 282° |
| 2026-04-26 12:20 | 51.97440 | 0.22835 | 4996 ft | 268 kts | 277° |
| 2026-04-26 12:21 | 51.97682 | 0.19821 | 4993 ft | 270 kts | 277° |
| 2026-04-26 12:21 | 51.97923 | 0.16799 | 4997 ft | 271 kts | 277° |
| 2026-04-26 12:21 | 51.98197 | 0.13765 | 5001 ft | 273 kts | 278° |
| 2026-04-26 12:21 | 51.98503 | 0.10720 | 4997 ft | 274 kts | 279° |
| 2026-04-26 12:22 | 51.98825 | 0.07658 | 4994 ft | 276 kts | 278° |
| 2026-04-26 12:22 | 51.98835 | 0.04586 | 4988 ft | 271 kts | 258° |
| 2026-04-26 12:22 | 51.98429 | 0.01624 | 5001 ft | 268 kts | 256° |
| 2026-04-26 12:22 | 51.98026 | -0.01332 | 4989 ft | 268 kts | 257° |
| 2026-04-26 12:23 | 51.97632 | -0.04301 | 4994 ft | 269 kts | 257° |
| 2026-04-26 12:23 | 51.97244 | -0.07272 | 4980 ft | 271 kts | 257° |
| 2026-04-26 12:23 | 51.96852 | -0.10276 | 5342 ft | 273 kts | 257° |
| 2026-04-26 12:23 | 51.96460 | -0.13289 | 6256 ft | 273 kts | 258° |
| 2026-04-26 12:24 | 51.96066 | -0.16302 | 7204 ft | 273 kts | 258° |
| 2026-04-26 12:24 | 51.95673 | -0.19312 | 8091 ft | 274 kts | 258° |
| 2026-04-26 12:24 | 51.95274 | -0.22356 | 8916 ft | 277 kts | 258° |
| 2026-04-26 12:25 | 51.94467 | -0.28498 | 10652 ft | 280 kts | 258° |
| 2026-04-26 12:25 | 51.94047 | -0.31693 | 11038 ft | 302 kts | 258° |
| 2026-04-26 12:25 | 51.93590 | -0.35159 | 11278 ft | 325 kts | 258° |
| 2026-04-26 12:25 | 51.93109 | -0.38800 | 11882 ft | 334 kts | 257° |
| 2026-04-26 12:26 | 51.92619 | -0.42490 | 12746 ft | 335 kts | 257° |
| 2026-04-26 12:26 | 51.92124 | -0.46198 | 13545 ft | 339 kts | 257° |
| 2026-04-26 12:26 | 51.91625 | -0.49945 | 14304 ft | 342 kts | 257° |
| 2026-04-26 12:26 | 51.91122 | -0.53728 | 15031 ft | 345 kts | 257° |
| 2026-04-26 12:27 | 51.90610 | -0.57554 | 15753 ft | 349 kts | 257° |
| 2026-04-26 12:27 | 51.90092 | -0.61409 | 16445 ft | 353 kts | 257° |
| 2026-04-26 12:27 | 51.89566 | -0.65313 | 17127 ft | 357 kts | 257° |
| 2026-04-26 12:27 | 51.89033 | -0.69262 | 17792 ft | 361 kts | 257° |
| 2026-04-26 12:28 | 51.88492 | -0.73249 | 18479 ft | 365 kts | 257° |
| 2026-04-26 12:28 | 51.87942 | -0.77284 | 19079 ft | 369 kts | 257° |
| 2026-04-26 12:28 | 51.87398 | -0.81292 | 19661 ft | 371 kts | 257° |
| 2026-04-26 12:28 | 51.86841 | -0.85385 | 20271 ft | 374 kts | 257° |
| 2026-04-26 12:29 | 51.86277 | -0.89507 | 20835 ft | 377 kts | 257° |
| 2026-04-26 12:29 | 51.85645 | -0.93637 | 21389 ft | 380 kts | 249° |
| 2026-04-26 12:29 | 51.82313 | -1.00161 | 22483 ft | 387 kts | 212° |
| 2026-04-26 12:30 | 51.79833 | -1.01903 | 22985 ft | 394 kts | 194° |
| 2026-04-26 12:30 | 51.77120 | -1.02694 | 23506 ft | 398 kts | 191° |
| 2026-04-26 12:30 | 51.74364 | -1.03340 | 23954 ft | 403 kts | 190° |
| 2026-04-26 12:31 | 51.68788 | -1.04650 | 24862 ft | 406 kts | 191° |
| 2026-04-26 12:31 | 51.65995 | -1.05355 | 25323 ft | 408 kts | 191° |
| 2026-04-26 12:31 | 51.63184 | -1.06079 | 25746 ft | 410 kts | 191° |
| 2026-04-26 12:31 | 51.60328 | -1.06531 | 26146 ft | 415 kts | 183° |
| 2026-04-26 12:32 | 51.57431 | -1.06414 | 26576 ft | 418 kts | 180° |
| 2026-04-26 12:32 | 51.54516 | -1.06206 | 26990 ft | 420 kts | 180° |
| 2026-04-26 12:32 | 51.48635 | -1.05796 | 27750 ft | 426 kts | 180° |
| 2026-04-26 12:33 | 51.45663 | -1.05618 | 28147 ft | 428 kts | 181° |
| 2026-04-26 12:33 | 51.42682 | -1.05451 | 28514 ft | 430 kts | 181° |
| 2026-04-26 12:33 | 51.39683 | -1.05288 | 28867 ft | 432 kts | 181° |
| 2026-04-26 12:33 | 51.36668 | -1.05126 | 29204 ft | 435 kts | 181° |
| 2026-04-26 12:34 | 51.33635 | -1.04961 | 29540 ft | 437 kts | 181° |
| 2026-04-26 12:34 | 51.30593 | -1.04796 | 29890 ft | 439 kts | 181° |
| 2026-04-26 12:34 | 51.27529 | -1.04537 | 30222 ft | 443 kts | 176° |
| 2026-04-26 12:34 | 51.24493 | -1.03614 | 30567 ft | 447 kts | 168° |
| 2026-04-26 12:35 | 51.21555 | -1.01934 | 30939 ft | 450 kts | 159° |
| 2026-04-26 12:35 | 51.18709 | -0.99842 | 31328 ft | 450 kts | 158° |
| 2026-04-26 12:35 | 51.15878 | -0.97714 | 31676 ft | 450 kts | 158° |
| 2026-04-26 12:35 | 51.13045 | -0.95592 | 32000 ft | 450 kts | 158° |
| 2026-04-26 12:36 | 51.10213 | -0.93495 | 32354 ft | 449 kts | 159° |
| 2026-04-26 12:36 | 51.07379 | -0.91421 | 32712 ft | 448 kts | 159° |
| 2026-04-26 12:36 | 51.04539 | -0.89360 | 33046 ft | 448 kts | 159° |
| 2026-04-26 12:36 | 51.01705 | -0.87313 | 33377 ft | 448 kts | 159° |
| 2026-04-26 12:37 | 50.98868 | -0.85269 | 33718 ft | 447 kts | 159° |
| 2026-04-26 12:37 | 50.96040 | -0.83232 | 34064 ft | 447 kts | 159° |
| 2026-04-26 12:37 | 50.93211 | -0.81197 | 34344 ft | 446 kts | 159° |
| 2026-04-26 12:37 | 50.90380 | -0.79161 | 34606 ft | 446 kts | 159° |
| 2026-04-26 12:38 | 50.87553 | -0.77131 | 34881 ft | 446 kts | 159° |
| 2026-04-26 12:38 | 50.84758 | -0.75011 | 35117 ft | 448 kts | 154° |
| 2026-04-26 12:38 | 50.82090 | -0.72443 | 35324 ft | 450 kts | 151° |
| 2026-04-26 12:39 | 50.76827 | -0.66991 | 35308 ft | 452 kts | 150° |
| 2026-04-26 12:39 | 50.71592 | -0.61546 | 35310 ft | 449 kts | 150° |
| 2026-04-26 12:40 | 50.66366 | -0.56208 | 35311 ft | 446 kts | 150° |
| 2026-04-26 12:40 | 50.61153 | -0.50939 | 35307 ft | 445 kts | 151° |
| 2026-04-26 12:41 | 50.55943 | -0.45695 | 35309 ft | 445 kts | 151° |
| 2026-04-26 12:41 | 50.50761 | -0.40491 | 35300 ft | 445 kts | 151° |
| 2026-04-26 12:42 | 50.45496 | -0.35216 | 35306 ft | 447 kts | 151° |
| 2026-04-26 12:42 | 50.40240 | -0.29963 | 35301 ft | 449 kts | 151° |
| 2026-04-26 12:43 | 50.34999 | -0.24738 | 35300 ft | 451 kts | 151° |
| 2026-04-26 12:43 | 50.29697 | -0.19467 | 35305 ft | 452 kts | 151° |
| 2026-04-26 12:44 | 50.24372 | -0.14186 | 35299 ft | 454 kts | 151° |
| 2026-04-26 12:44 | 50.19035 | -0.08907 | 35291 ft | 455 kts | 151° |
| 2026-04-26 12:45 | 50.13681 | -0.03624 | 35290 ft | 455 kts | 151° |
| 2026-04-26 12:45 | 50.08101 | 0.00859 | 35278 ft | 448 kts | 166° |
| 2026-04-26 12:46 | 50.02100 | 0.03262 | 35273 ft | 445 kts | 170° |
| 2026-04-26 12:46 | 49.96080 | 0.05518 | 35280 ft | 445 kts | 170° |
| 2026-04-26 12:47 | 49.90076 | 0.07837 | 35278 ft | 445 kts | 169° |
| 2026-04-26 12:47 | 49.84077 | 0.10188 | 35266 ft | 444 kts | 169° |
| 2026-04-26 12:48 | 49.78083 | 0.12534 | 35272 ft | 444 kts | 169° |
| 2026-04-26 12:48 | 49.72089 | 0.14876 | 35260 ft | 444 kts | 169° |
| 2026-04-26 12:49 | 49.66117 | 0.17402 | 35245 ft | 445 kts | 169° |
| 2026-04-26 12:49 | 49.60122 | 0.19744 | 35267 ft | 444 kts | 170° |
| 2026-04-26 12:50 | 49.54127 | 0.22068 | 35269 ft | 445 kts | 169° |
| 2026-04-26 12:50 | 49.48129 | 0.24454 | 35261 ft | 445 kts | 169° |
| 2026-04-26 12:51 | 49.42169 | 0.26844 | 35263 ft | 446 kts | 169° |
| 2026-04-26 12:51 | 49.36160 | 0.29246 | 35263 ft | 446 kts | 169° |
| 2026-04-26 12:52 | 49.30145 | 0.31646 | 35264 ft | 447 kts | 168° |
| 2026-04-26 12:52 | 49.25119 | 0.33742 | 35259 ft | 448 kts | 168° |
| 2026-04-26 12:53 | 49.19108 | 0.36298 | 35256 ft | 448 kts | 168° |
| 2026-04-26 12:53 | 49.13090 | 0.38842 | 35251 ft | 449 kts | 168° |
| 2026-04-26 12:54 | 49.07065 | 0.41371 | 35247 ft | 449 kts | 168° |
| 2026-04-26 12:54 | 49.01031 | 0.43893 | 35240 ft | 450 kts | 168° |
| 2026-04-26 12:55 | 48.95023 | 0.46398 | 35243 ft | 451 kts | 168° |
| 2026-04-26 12:55 | 48.88970 | 0.48917 | 35244 ft | 451 kts | 168° |
| 2026-04-26 12:56 | 48.82909 | 0.51433 | 35240 ft | 452 kts | 168° |
| 2026-04-26 12:56 | 48.76846 | 0.53926 | 35246 ft | 451 kts | 168° |
| 2026-04-26 12:57 | 48.70768 | 0.56304 | 35240 ft | 451 kts | 169° |
| 2026-04-26 12:57 | 48.64683 | 0.58667 | 35238 ft | 451 kts | 169° |
| 2026-04-26 12:58 | 48.55564 | 0.62225 | 35237 ft | 451 kts | 169° |
| 2026-04-26 12:58 | 48.49493 | 0.64611 | 35235 ft | 451 kts | 168° |
| 2026-04-26 12:59 | 48.43439 | 0.67083 | 35233 ft | 451 kts | 168° |
| 2026-04-26 12:59 | 48.37384 | 0.69557 | 35235 ft | 451 kts | 168° |
| 2026-04-26 13:00 | 48.31331 | 0.72010 | 35226 ft | 451 kts | 168° |
| 2026-04-26 13:00 | 48.25281 | 0.74453 | 35230 ft | 450 kts | 168° |
| 2026-04-26 13:01 | 48.19227 | 0.76853 | 35235 ft | 450 kts | 168° |
| 2026-04-26 13:01 | 48.13160 | 0.79229 | 35223 ft | 450 kts | 168° |
| 2026-04-26 13:02 | 48.07093 | 0.81604 | 35229 ft | 451 kts | 168° |
| 2026-04-26 13:02 | 48.01025 | 0.83978 | 35235 ft | 451 kts | 168° |
| 2026-04-26 13:03 | 47.94948 | 0.86352 | 35230 ft | 451 kts | 168° |
| 2026-04-26 13:03 | 47.88868 | 0.88722 | 35221 ft | 452 kts | 168° |
| 2026-04-26 13:04 | 47.82780 | 0.91087 | 35219 ft | 452 kts | 168° |
| 2026-04-26 13:04 | 47.76684 | 0.93448 | 35212 ft | 453 kts | 168° |
| 2026-04-26 13:05 | 47.70581 | 0.95807 | 35212 ft | 454 kts | 168° |
| 2026-04-26 13:05 | 47.64467 | 0.98165 | 35209 ft | 454 kts | 168° |
| 2026-04-26 13:06 | 47.58342 | 1.00522 | 35211 ft | 455 kts | 168° |
| 2026-04-26 13:06 | 47.52214 | 1.02875 | 35211 ft | 455 kts | 168° |
| 2026-04-26 13:07 | 47.46118 | 1.05210 | 35209 ft | 456 kts | 168° |
| 2026-04-26 13:07 | 47.39892 | 1.06555 | 35202 ft | 450 kts | 184° |
| 2026-04-26 13:08 | 47.33643 | 1.06338 | 35202 ft | 449 kts | 185° |
| 2026-04-26 13:08 | 47.27385 | 1.06096 | 35200 ft | 450 kts | 184° |
| 2026-04-26 13:09 | 47.21115 | 1.05926 | 35202 ft | 451 kts | 184° |
| 2026-04-26 13:09 | 47.14837 | 1.05783 | 35192 ft | 452 kts | 184° |
| 2026-04-26 13:10 | 47.08550 | 1.05639 | 35203 ft | 452 kts | 184° |
| 2026-04-26 13:10 | 47.02260 | 1.05492 | 35198 ft | 452 kts | 184° |
| 2026-04-26 13:11 | 46.95966 | 1.05252 | 35201 ft | 453 kts | 184° |
| 2026-04-26 13:11 | 46.89667 | 1.04961 | 35201 ft | 453 kts | 184° |
| 2026-04-26 13:12 | 46.83365 | 1.04680 | 35200 ft | 453 kts | 184° |
| 2026-04-26 13:12 | 46.77065 | 1.04410 | 35201 ft | 453 kts | 184° |
| 2026-04-26 13:13 | 46.70760 | 1.04143 | 35199 ft | 454 kts | 184° |
| 2026-04-26 13:13 | 46.64488 | 1.03877 | 35198 ft | 454 kts | 184° |
| 2026-04-26 13:14 | 46.58174 | 1.03610 | 35195 ft | 454 kts | 184° |
| 2026-04-26 13:14 | 46.51852 | 1.03344 | 35194 ft | 455 kts | 184° |
| 2026-04-26 13:15 | 46.45527 | 1.03206 | 35200 ft | 455 kts | 182° |
| 2026-04-26 13:15 | 46.39190 | 1.03169 | 35208 ft | 455 kts | 182° |
| 2026-04-26 13:16 | 46.32856 | 1.03121 | 35200 ft | 455 kts | 182° |
| 2026-04-26 13:16 | 46.26523 | 1.03056 | 35198 ft | 455 kts | 182° |
| 2026-04-26 13:17 | 46.17014 | 1.02949 | 35196 ft | 455 kts | 182° |
| 2026-04-26 13:18 | 46.08219 | 1.02851 | 35197 ft | 455 kts | 182° |
| 2026-04-26 13:19 | 45.98708 | 1.02746 | 35184 ft | 456 kts | 182° |
| 2026-04-26 13:19 | 45.92370 | 1.02677 | 35185 ft | 456 kts | 182° |
| 2026-04-26 13:20 | 45.86024 | 1.02607 | 35190 ft | 456 kts | 182° |
| 2026-04-26 13:20 | 45.79685 | 1.02903 | 35179 ft | 457 kts | 172° |
| 2026-04-26 13:21 | 45.73424 | 1.04523 | 35190 ft | 457 kts | 170° |
| 2026-04-26 13:21 | 45.67173 | 1.06231 | 35187 ft | 457 kts | 170° |
| 2026-04-26 13:22 | 45.60916 | 1.07877 | 35176 ft | 457 kts | 170° |
| 2026-04-26 13:22 | 45.54651 | 1.09484 | 35175 ft | 457 kts | 170° |
| 2026-04-26 13:23 | 45.48389 | 1.11080 | 35176 ft | 457 kts | 170° |
| 2026-04-26 13:23 | 45.42127 | 1.12674 | 35171 ft | 457 kts | 170° |
| 2026-04-26 13:24 | 45.35864 | 1.14266 | 35170 ft | 457 kts | 170° |
| 2026-04-26 13:24 | 45.29645 | 1.15845 | 35164 ft | 457 kts | 170° |
| 2026-04-26 13:25 | 45.23340 | 1.17442 | 35164 ft | 457 kts | 170° |
| 2026-04-26 13:25 | 45.17104 | 1.18856 | 35165 ft | 457 kts | 177° |
| 2026-04-26 13:26 | 45.10811 | 1.18193 | 35181 ft | 453 kts | 192° |
| 2026-04-26 13:26 | 45.04614 | 1.16517 | 35172 ft | 454 kts | 192° |
| 2026-04-26 13:27 | 44.98409 | 1.14846 | 35171 ft | 454 kts | 192° |
| 2026-04-26 13:27 | 44.92200 | 1.13231 | 35170 ft | 454 kts | 192° |
| 2026-04-26 13:28 | 44.85992 | 1.11646 | 35170 ft | 453 kts | 191° |
| 2026-04-26 13:28 | 44.79786 | 1.10068 | 35173 ft | 453 kts | 191° |
| 2026-04-26 13:29 | 44.73579 | 1.08492 | 35165 ft | 453 kts | 191° |
| 2026-04-26 13:29 | 44.67370 | 1.06918 | 35168 ft | 453 kts | 191° |
| 2026-04-26 13:30 | 44.61165 | 1.05348 | 35167 ft | 453 kts | 191° |
| 2026-04-26 13:30 | 44.54958 | 1.03782 | 35166 ft | 453 kts | 191° |
| 2026-04-26 13:31 | 44.48754 | 1.02219 | 35168 ft | 453 kts | 191° |
| 2026-04-26 13:31 | 44.42555 | 1.00661 | 35166 ft | 452 kts | 191° |
| 2026-04-26 13:32 | 44.36360 | 0.99107 | 35170 ft | 452 kts | 191° |
| 2026-04-26 13:32 | 44.30165 | 0.97556 | 35170 ft | 452 kts | 191° |
| 2026-04-26 13:33 | 44.23980 | 0.96011 | 35175 ft | 451 kts | 191° |
| 2026-04-26 13:33 | 44.17796 | 0.94470 | 35173 ft | 451 kts | 191° |
| 2026-04-26 13:34 | 44.11621 | 0.92935 | 35172 ft | 451 kts | 191° |
| 2026-04-26 13:34 | 44.05453 | 0.91404 | 35175 ft | 450 kts | 191° |
| 2026-04-26 13:35 | 43.99287 | 0.89877 | 35170 ft | 450 kts | 191° |
| 2026-04-26 13:35 | 43.93130 | 0.88354 | 35169 ft | 449 kts | 191° |
| 2026-04-26 13:36 | 43.87021 | 0.86837 | 35165 ft | 449 kts | 191° |
| 2026-04-26 13:36 | 43.80848 | 0.85193 | 35167 ft | 448 kts | 192° |
| 2026-04-26 13:37 | 43.74770 | 0.83546 | 35168 ft | 448 kts | 192° |
| 2026-04-26 13:37 | 43.68657 | 0.81902 | 35164 ft | 447 kts | 192° |
| 2026-04-26 13:38 | 43.62548 | 0.80272 | 35168 ft | 447 kts | 191° |
| 2026-04-26 13:38 | 43.56441 | 0.78649 | 35163 ft | 447 kts | 191° |
| 2026-04-26 13:39 | 43.50337 | 0.77031 | 35174 ft | 446 kts | 191° |
| 2026-04-26 13:39 | 43.45231 | 0.75679 | 35176 ft | 446 kts | 191° |
| 2026-04-26 13:40 | 43.39139 | 0.74070 | 35165 ft | 445 kts | 191° |
| 2026-04-26 13:40 | 43.33099 | 0.72477 | 35168 ft | 445 kts | 191° |
| 2026-04-26 13:41 | 43.27027 | 0.70879 | 35164 ft | 444 kts | 191° |
| 2026-04-26 13:41 | 43.20972 | 0.69289 | 35173 ft | 443 kts | 191° |
| 2026-04-26 13:42 | 43.14931 | 0.67705 | 35173 ft | 442 kts | 191° |
| 2026-04-26 13:42 | 43.08904 | 0.66129 | 35167 ft | 440 kts | 191° |
| 2026-04-26 13:43 | 43.02891 | 0.64559 | 35187 ft | 439 kts | 191° |
| 2026-04-26 13:43 | 42.96892 | 0.62996 | 35176 ft | 439 kts | 191° |
| 2026-04-26 13:44 | 42.90898 | 0.61437 | 35172 ft | 438 kts | 191° |
| 2026-04-26 13:44 | 42.84916 | 0.59885 | 35180 ft | 437 kts | 191° |
| 2026-04-26 13:45 | 42.78942 | 0.58337 | 35177 ft | 437 kts | 191° |
| 2026-04-26 13:45 | 42.72964 | 0.56791 | 35186 ft | 438 kts | 191° |
| 2026-04-26 13:46 | 42.66975 | 0.55246 | 35172 ft | 438 kts | 191° |
| 2026-04-26 13:46 | 42.61028 | 0.53717 | 35180 ft | 438 kts | 191° |
| 2026-04-26 13:47 | 42.55039 | 0.52180 | 35175 ft | 438 kts | 191° |
| 2026-04-26 13:47 | 42.49051 | 0.50645 | 35160 ft | 438 kts | 191° |
| 2026-04-26 13:48 | 42.43061 | 0.49112 | 35157 ft | 438 kts | 191° |
| 2026-04-26 13:48 | 42.37078 | 0.47585 | 35139 ft | 437 kts | 192° |
| 2026-04-26 13:49 | 42.31109 | 0.46064 | 35136 ft | 436 kts | 192° |
| 2026-04-26 13:49 | 42.25142 | 0.44545 | 35132 ft | 436 kts | 192° |
| 2026-04-26 13:50 | 42.19186 | 0.43031 | 35128 ft | 435 kts | 192° |
| 2026-04-26 13:50 | 42.13241 | 0.41523 | 35129 ft | 434 kts | 192° |
| 2026-04-26 13:51 | 42.07309 | 0.40022 | 35111 ft | 433 kts | 192° |
| 2026-04-26 13:51 | 42.01397 | 0.38527 | 35116 ft | 432 kts | 192° |
| 2026-04-26 13:52 | 41.95495 | 0.37040 | 35117 ft | 431 kts | 192° |
| 2026-04-26 13:52 | 41.89612 | 0.35560 | 35111 ft | 430 kts | 192° |
| 2026-04-26 13:53 | 41.83737 | 0.34085 | 35121 ft | 429 kts | 192° |
| 2026-04-26 13:53 | 41.77871 | 0.32613 | 35124 ft | 429 kts | 192° |
| 2026-04-26 13:54 | 41.72008 | 0.31148 | 35119 ft | 429 kts | 192° |
| 2026-04-26 13:54 | 41.66144 | 0.29685 | 35123 ft | 428 kts | 192° |
| 2026-04-26 13:55 | 41.58344 | 0.27742 | 35118 ft | 428 kts | 192° |
| 2026-04-26 13:56 | 41.48602 | 0.25320 | 35100 ft | 428 kts | 192° |
| 2026-04-26 13:56 | 41.42710 | 0.23860 | 35098 ft | 428 kts | 192° |
| 2026-04-26 13:57 | 41.36852 | 0.22409 | 35096 ft | 428 kts | 192° |
| 2026-04-26 13:57 | 41.30993 | 0.20963 | 35101 ft | 428 kts | 192° |
| 2026-04-26 13:58 | 41.25130 | 0.19518 | 35097 ft | 428 kts | 191° |
| 2026-04-26 13:58 | 41.19273 | 0.18077 | 35100 ft | 428 kts | 191° |
| 2026-04-26 13:59 | 41.13407 | 0.16633 | 35100 ft | 428 kts | 192° |
| 2026-04-26 13:59 | 41.07674 | 0.14532 | 35107 ft | 428 kts | 198° |
| 2026-04-26 14:00 | 40.96300 | 0.09802 | 35106 ft | 429 kts | 197° |
| 2026-04-26 14:01 | 40.90629 | 0.07521 | 35113 ft | 429 kts | 197° |
| 2026-04-26 14:01 | 40.84907 | 0.05227 | 35114 ft | 430 kts | 197° |
| 2026-04-26 14:02 | 40.79178 | 0.02933 | 35120 ft | 431 kts | 197° |
| 2026-04-26 14:02 | 40.73440 | 0.00639 | 35120 ft | 431 kts | 197° |
| 2026-04-26 14:03 | 40.67692 | -0.01656 | 35126 ft | 432 kts | 197° |
| 2026-04-26 14:03 | 40.61938 | -0.03950 | 35126 ft | 432 kts | 197° |
| 2026-04-26 14:04 | 40.56174 | -0.06243 | 35131 ft | 433 kts | 197° |
| 2026-04-26 14:04 | 40.50404 | -0.08532 | 35129 ft | 433 kts | 197° |
| 2026-04-26 14:05 | 40.44627 | -0.10821 | 35135 ft | 434 kts | 196° |
| 2026-04-26 14:05 | 40.38845 | -0.13109 | 35131 ft | 434 kts | 196° |
| 2026-04-26 14:06 | 40.33057 | -0.15396 | 35134 ft | 435 kts | 196° |
| 2026-04-26 14:06 | 40.27266 | -0.17680 | 35131 ft | 435 kts | 196° |
| 2026-04-26 14:07 | 40.21471 | -0.19960 | 35133 ft | 435 kts | 196° |
| 2026-04-26 14:07 | 40.15670 | -0.22237 | 35127 ft | 435 kts | 195° |
| 2026-04-26 14:08 | 40.09907 | -0.24497 | 35135 ft | 435 kts | 195° |
| 2026-04-26 14:08 | 40.04109 | -0.26769 | 35128 ft | 435 kts | 195° |
| 2026-04-26 14:09 | 39.98312 | -0.29033 | 35126 ft | 435 kts | 195° |
| 2026-04-26 14:09 | 39.92522 | -0.31289 | 35133 ft | 434 kts | 195° |
| 2026-04-26 14:10 | 39.86742 | -0.33537 | 35134 ft | 433 kts | 195° |
| 2026-04-26 14:10 | 39.80963 | -0.35782 | 35126 ft | 433 kts | 195° |
| 2026-04-26 14:11 | 39.72329 | -0.39131 | 35135 ft | 432 kts | 195° |
| 2026-04-26 14:11 | 39.66576 | -0.41358 | 35131 ft | 431 kts | 195° |
| 2026-04-26 14:12 | 39.60832 | -0.43577 | 35134 ft | 430 kts | 195° |
| 2026-04-26 14:12 | 39.55099 | -0.45789 | 35128 ft | 430 kts | 195° |
| 2026-04-26 14:13 | 39.46612 | -0.49513 | 35123 ft | 431 kts | 206° |
| 2026-04-26 14:14 | 39.41342 | -0.53211 | 35128 ft | 431 kts | 208° |
| 2026-04-26 14:14 | 39.36085 | -0.56965 | 35131 ft | 432 kts | 207° |
| 2026-04-26 14:15 | 39.30833 | -0.60649 | 35134 ft | 433 kts | 207° |
| 2026-04-26 14:15 | 39.25524 | -0.64334 | 35130 ft | 434 kts | 207° |
| 2026-04-26 14:16 | 39.20205 | -0.68016 | 35132 ft | 434 kts | 207° |
| 2026-04-26 14:16 | 39.14874 | -0.71701 | 35128 ft | 435 kts | 207° |
| 2026-04-26 14:17 | 39.09529 | -0.75392 | 35126 ft | 436 kts | 207° |
| 2026-04-26 14:17 | 39.04170 | -0.79083 | 35126 ft | 437 kts | 207° |
| 2026-04-26 14:18 | 38.98801 | -0.82773 | 35123 ft | 438 kts | 207° |
| 2026-04-26 14:18 | 38.93426 | -0.86463 | 35122 ft | 438 kts | 207° |
| 2026-04-26 14:19 | 38.88040 | -0.90155 | 35125 ft | 439 kts | 207° |
| 2026-04-26 14:19 | 38.82651 | -0.93842 | 35133 ft | 439 kts | 207° |
| 2026-04-26 14:20 | 38.77251 | -0.97532 | 35125 ft | 440 kts | 207° |
| 2026-04-26 14:20 | 38.71846 | -1.01217 | 35122 ft | 440 kts | 207° |
| 2026-04-26 14:21 | 38.66436 | -1.04896 | 35121 ft | 441 kts | 207° |
| 2026-04-26 14:21 | 38.61023 | -1.08573 | 35123 ft | 440 kts | 207° |
| 2026-04-26 14:22 | 38.55608 | -1.12245 | 35123 ft | 440 kts | 207° |
| 2026-04-26 14:22 | 38.50233 | -1.15885 | 35123 ft | 440 kts | 207° |
| 2026-04-26 14:23 | 38.44818 | -1.19545 | 35126 ft | 440 kts | 207° |
| 2026-04-26 14:23 | 38.39405 | -1.23199 | 35127 ft | 440 kts | 207° |
| 2026-04-26 14:24 | 38.33995 | -1.26843 | 35118 ft | 437 kts | 207° |
| 2026-04-26 14:24 | 38.28684 | -1.30416 | 35121 ft | 428 kts | 207° |
| 2026-04-26 14:25 | 38.23420 | -1.33950 | 35024 ft | 430 kts | 207° |
| 2026-04-26 14:25 | 38.20776 | -1.35724 | 34721 ft | 428 kts | 207° |
| 2026-04-26 14:25 | 38.18158 | -1.37478 | 34349 ft | 424 kts | 207° |
| 2026-04-26 14:25 | 38.15557 | -1.39219 | 33971 ft | 421 kts | 207° |
| 2026-04-26 14:26 | 38.12972 | -1.40948 | 33542 ft | 419 kts | 207° |
| 2026-04-26 14:26 | 38.10404 | -1.42665 | 33151 ft | 416 kts | 207° |
| 2026-04-26 14:26 | 38.07857 | -1.44366 | 32763 ft | 412 kts | 207° |
| 2026-04-26 14:26 | 38.05327 | -1.46055 | 32394 ft | 409 kts | 207° |
| 2026-04-26 14:27 | 38.02815 | -1.47731 | 32027 ft | 407 kts | 207° |
| 2026-04-26 14:27 | 38.00321 | -1.49393 | 31666 ft | 404 kts | 207° |
| 2026-04-26 14:27 | 37.97839 | -1.51046 | 31307 ft | 402 kts | 207° |
| 2026-04-26 14:27 | 37.96204 | -1.52135 | 31069 ft | 400 kts | 207° |
| 2026-04-26 14:28 | 37.93744 | -1.53771 | 30712 ft | 398 kts | 207° |
| 2026-04-26 14:28 | 37.91295 | -1.55398 | 30362 ft | 397 kts | 207° |
| 2026-04-26 14:28 | 37.88851 | -1.57011 | 29972 ft | 395 kts | 207° |
| 2026-04-26 14:28 | 37.86414 | -1.58600 | 29564 ft | 393 kts | 207° |
| 2026-04-26 14:29 | 37.83991 | -1.60172 | 29180 ft | 390 kts | 207° |
| 2026-04-26 14:29 | 37.81587 | -1.61731 | 28808 ft | 387 kts | 207° |
| 2026-04-26 14:29 | 37.79204 | -1.63276 | 28439 ft | 384 kts | 207° |
| 2026-04-26 14:29 | 37.76836 | -1.64811 | 28072 ft | 381 kts | 207° |
| 2026-04-26 14:30 | 37.74486 | -1.66335 | 27711 ft | 379 kts | 207° |
| 2026-04-26 14:30 | 37.72151 | -1.67849 | 27349 ft | 376 kts | 207° |
| 2026-04-26 14:30 | 37.69824 | -1.69357 | 26995 ft | 374 kts | 207° |
| 2026-04-26 14:30 | 37.67515 | -1.70853 | 26641 ft | 372 kts | 207° |
| 2026-04-26 14:31 | 37.65214 | -1.72342 | 26286 ft | 371 kts | 207° |
| 2026-04-26 14:31 | 37.62926 | -1.73823 | 25942 ft | 369 kts | 207° |
| 2026-04-26 14:31 | 37.60642 | -1.75298 | 25595 ft | 368 kts | 208° |
| 2026-04-26 14:31 | 37.58373 | -1.76764 | 25245 ft | 367 kts | 207° |
| 2026-04-26 14:32 | 37.56103 | -1.78230 | 24899 ft | 365 kts | 207° |
| 2026-04-26 14:32 | 37.53844 | -1.79687 | 24550 ft | 364 kts | 207° |
| 2026-04-26 14:32 | 37.51592 | -1.81139 | 24199 ft | 364 kts | 207° |
| 2026-04-26 14:32 | 37.49339 | -1.82590 | 23858 ft | 363 kts | 207° |
| 2026-04-26 14:33 | 37.47086 | -1.84041 | 23451 ft | 363 kts | 207° |
| 2026-04-26 14:33 | 37.44845 | -1.85483 | 23065 ft | 361 kts | 207° |
| 2026-04-26 14:33 | 37.42613 | -1.86917 | 22709 ft | 359 kts | 207° |
| 2026-04-26 14:33 | 37.40424 | -1.88324 | 22351 ft | 357 kts | 207° |
| 2026-04-26 14:34 | 37.38219 | -1.89740 | 22012 ft | 355 kts | 207° |
| 2026-04-26 14:34 | 37.36028 | -1.91146 | 21664 ft | 353 kts | 207° |
| 2026-04-26 14:34 | 37.33815 | -1.92566 | 21312 ft | 351 kts | 207° |
| 2026-04-26 14:34 | 37.31676 | -1.93937 | 20979 ft | 349 kts | 207° |
| 2026-04-26 14:35 | 37.29520 | -1.95318 | 20648 ft | 347 kts | 207° |
| 2026-04-26 14:35 | 37.27375 | -1.96690 | 20321 ft | 345 kts | 207° |
| 2026-04-26 14:35 | 37.25314 | -1.98219 | 19960 ft | 344 kts | 221° |
| 2026-04-26 14:35 | 37.23783 | -2.00478 | 19633 ft | 339 kts | 243° |
| 2026-04-26 14:36 | 37.22747 | -2.03120 | 19331 ft | 336 kts | 247° |
| 2026-04-26 14:36 | 37.21789 | -2.05795 | 18977 ft | 336 kts | 248° |
| 2026-04-26 14:36 | 37.20848 | -2.08475 | 18647 ft | 336 kts | 248° |
| 2026-04-26 14:36 | 37.19903 | -2.11153 | 18304 ft | 336 kts | 248° |
| 2026-04-26 14:37 | 37.18950 | -2.13828 | 17934 ft | 335 kts | 247° |
| 2026-04-26 14:37 | 37.17995 | -2.16486 | 17570 ft | 334 kts | 247° |
| 2026-04-26 14:37 | 37.17039 | -2.19131 | 17243 ft | 332 kts | 246° |
| 2026-04-26 14:37 | 37.16086 | -2.21759 | 16916 ft | 330 kts | 246° |
| 2026-04-26 14:38 | 37.15135 | -2.24370 | 16583 ft | 329 kts | 247° |
| 2026-04-26 14:38 | 37.14186 | -2.26973 | 16260 ft | 328 kts | 247° |
| 2026-04-26 14:38 | 37.13240 | -2.29567 | 15931 ft | 327 kts | 246° |
| 2026-04-26 14:38 | 37.12294 | -2.32152 | 15603 ft | 326 kts | 246° |
| 2026-04-26 14:39 | 37.11353 | -2.34727 | 15265 ft | 325 kts | 246° |
| 2026-04-26 14:39 | 37.10414 | -2.37294 | 14953 ft | 323 kts | 246° |
| 2026-04-26 14:39 | 37.09479 | -2.39846 | 14628 ft | 322 kts | 246° |
| 2026-04-26 14:39 | 37.08545 | -2.42392 | 14309 ft | 321 kts | 246° |
| 2026-04-26 14:40 | 37.07615 | -2.44925 | 13989 ft | 320 kts | 246° |
| 2026-04-26 14:40 | 37.06689 | -2.47450 | 13640 ft | 319 kts | 246° |
| 2026-04-26 14:40 | 37.05764 | -2.49968 | 13295 ft | 317 kts | 246° |
| 2026-04-26 14:40 | 37.04845 | -2.52465 | 12948 ft | 315 kts | 246° |
| 2026-04-26 14:41 | 37.03930 | -2.54948 | 12633 ft | 313 kts | 246° |
| 2026-04-26 14:41 | 37.03020 | -2.57417 | 12311 ft | 312 kts | 246° |
| 2026-04-26 14:41 | 37.02113 | -2.59877 | 11976 ft | 311 kts | 246° |
| 2026-04-26 14:41 | 37.01208 | -2.62327 | 11641 ft | 309 kts | 246° |
| 2026-04-26 14:42 | 37.00308 | -2.64762 | 11332 ft | 308 kts | 246° |
| 2026-04-26 14:42 | 36.99411 | -2.67190 | 11020 ft | 307 kts | 246° |
| 2026-04-26 14:42 | 36.98518 | -2.69607 | 10709 ft | 306 kts | 246° |
| 2026-04-26 14:42 | 36.97624 | -2.72016 | 10405 ft | 305 kts | 246° |
| 2026-04-26 14:43 | 36.96734 | -2.74418 | 10189 ft | 301 kts | 246° |
| 2026-04-26 14:43 | 36.95603 | -2.76571 | 10027 ft | 296 kts | 223° |
| 2026-04-26 14:43 | 36.93905 | -2.77939 | 9734 ft | 295 kts | 199° |
| 2026-04-26 14:43 | 36.91885 | -2.78310 | 9392 ft | 294 kts | 176° |
| 2026-04-26 14:44 | 36.89887 | -2.77782 | 9056 ft | 293 kts | 162° |
| 2026-04-26 14:44 | 36.87937 | -2.77017 | 8741 ft | 294 kts | 161° |
| 2026-04-26 14:44 | 36.85977 | -2.76236 | 8314 ft | 299 kts | 161° |
| 2026-04-26 14:44 | 36.83979 | -2.75454 | 7783 ft | 301 kts | 161° |
| 2026-04-26 14:45 | 36.81959 | -2.74679 | 7051 ft | 306 kts | 161° |
| 2026-04-26 14:45 | 36.80615 | -2.74166 | 6764 ft | 302 kts | 160° |
| 2026-04-26 14:45 | 36.78271 | -2.72515 | 6123 ft | 287 kts | 129° |
| 2026-04-26 14:45 | 36.77275 | -2.70462 | 5667 ft | 278 kts | 106° |
| 2026-04-26 14:46 | 36.76941 | -2.68133 | 5253 ft | 270 kts | 88° |
| 2026-04-26 14:46 | 36.77201 | -2.65859 | 4842 ft | 262 kts | 73° |
| 2026-04-26 14:46 | 36.77725 | -2.63714 | 4441 ft | 256 kts | 71° |
| 2026-04-26 14:46 | 36.78266 | -2.61640 | 4031 ft | 245 kts | 70° |
| 2026-04-26 14:47 | 36.78776 | -2.59680 | 3673 ft | 231 kts | 71° |
| 2026-04-26 14:47 | 36.79250 | -2.57829 | 3337 ft | 218 kts | 71° |
| 2026-04-26 14:47 | 36.79696 | -2.56083 | 3016 ft | 204 kts | 72° |
| 2026-04-26 14:47 | 36.80114 | -2.54453 | 2688 ft | 190 kts | 72° |
| 2026-04-26 14:48 | 36.80491 | -2.52941 | 2456 ft | 174 kts | 73° |
| 2026-04-26 14:48 | 36.80831 | -2.51560 | 2219 ft | 159 kts | 74° |
| 2026-04-26 14:48 | 36.81151 | -2.50248 | 2012 ft | 158 kts | 72° |
| 2026-04-26 14:48 | 36.81468 | -2.48950 | 1816 ft | 156 kts | 72° |
| 2026-04-26 14:49 | 36.81782 | -2.47671 | 1615 ft | 150 kts | 74° |
| 2026-04-26 14:49 | 36.82076 | -2.46467 | 1368 ft | 141 kts | 75° |
| 2026-04-26 14:49 | 36.82354 | -2.45326 | 1205 ft | 135 kts | 73° |
| 2026-04-26 14:49 | 36.82635 | -2.44182 | 1073 ft | 142 kts | 75° |
| 2026-04-26 14:50 | 36.82930 | -2.42964 | 870 ft | 149 kts | 75° |
| 2026-04-26 14:50 | 36.83234 | -2.41736 | 660 ft | 147 kts | 75° |
| 2026-04-26 14:50 | 36.83528 | -2.40525 | 464 ft | 145 kts | 76° |
| 2026-04-26 14:50 | 36.83819 | -2.39354 | 239 ft | 137 kts | 74° |
| 2026-04-26 14:51 | 36.84088 | -2.38267 | 63 ft | 122 kts | 75° |
| 2026-04-26 14:51 | 36.84294 | -2.37418 | 55 ft | 61 kts | 73° |
| 2026-04-26 14:51 | 36.84383 | -2.37150 | 62 ft | 21 kts | 57° |
| 2026-04-26 14:51 | 36.84458 | -2.37040 | 62 ft | 10 kts | 43° |
| 2026-04-26 14:52 | 36.84507 | -2.36985 | 63 ft | 6 kts | 41° |
| 2026-04-26 14:52 | 36.84539 | -2.36949 | 60 ft | 5 kts | 42° |
| 2026-04-26 14:52 | 36.84571 | -2.36912 | 60 ft | 8 kts | 43° |
| 2026-04-26 14:52 | 36.84627 | -2.36909 | 65 ft | 11 kts | 313° |
| 2026-04-26 14:53 | 36.84648 | -2.36997 | 65 ft | 13 kts | 255° |
| 2026-04-26 14:53 | 36.84632 | -2.37075 | 63 ft | 4 kts | 287° |
| 2026-04-26 14:53 | 36.84660 | -2.37092 | 66 ft | 4 kts | 342° |
| 2026-04-26 14:53 | 36.84693 | -2.37104 | 64 ft | 4 kts | 342° |
| 2026-04-26 14:54 | 36.84713 | -2.37091 | 63 ft | 3 kts | 75° |
| 2026-04-26 14:54 | 36.84702 | -2.37077 | 63 ft | 3 kts | 144° |
| 2026-04-26 14:54 | 36.84697 | -2.37073 | 69 ft | 0 kts | 146° |